Time;durP1;ratioP1;P1;durP2;ratioP2;P2;SDS_P1;SDS_P2;PMS_P1;PMS_P2;Temp;Humidity;BMP_temperature;BMP_pressure;BME280_temperature;BME280_humidity;BME280_pressure;Samples;Min_cycle;Max_cycle;Signal;HPM_P1;HPM_P2
2022/02/17 00:00:25;;;;;;;19.52;3.08;;;10.40;99.90;;;;;;5085927;28;20044;-70
2022/02/17 00:02:51;;;;;;;18.73;3.80;;;10.30;99.90;;;;;;5086065;28;20056;-70
2022/02/17 00:05:17;;;;;;;18.20;3.45;;;10.30;99.90;;;;;;5103873;28;20040;-70
2022/02/17 00:07:43;;;;;;;17.73;4.57;;;10.30;99.90;;;;;;5085510;28;20086;-70
2022/02/17 00:10:09;;;;;;;17.27;3.63;;;10.40;99.90;;;;;;5072880;28;20095;-70
2022/02/17 00:12:35;;;;;;;14.68;3.22;;;10.30;99.90;;;;;;5086157;28;20048;-70
2022/02/17 00:15:01;;;;;;;17.33;3.53;;;10.40;99.90;;;;;;5086822;28;20048;-70
2022/02/17 00:17:27;;;;;;;16.63;3.25;;;10.30;99.90;;;;;;5086260;28;20099;-70
2022/02/17 00:19:53;;;;;;;15.85;3.42;;;10.20;99.90;;;;;;5085983;28;20039;-70
2022/02/17 00:22:19;;;;;;;17.65;3.65;;;10.30;99.90;;;;;;5086205;28;20101;-70
2022/02/17 00:24:44;;;;;;;19.45;3.55;;;10.50;99.90;;;;;;5085344;28;20054;-70
2022/02/17 00:27:10;;;;;;;15.60;4.75;;;10.60;99.90;;;;;;5085712;28;20407;-69
2022/02/17 00:29:36;;;;;;;18.45;3.20;;;10.70;99.90;;;;;;5085686;28;20085;-70
2022/02/17 00:32:02;;;;;;;15.70;4.47;;;10.60;99.90;;;;;;5103977;28;20048;-70
2022/02/17 00:34:28;;;;;;;17.98;5.00;;;10.80;99.90;;;;;;5087236;28;20040;-70
2022/02/17 00:36:53;;;;;;;15.80;4.25;;;10.80;99.90;;;;;;5086130;28;20069;-70
2022/02/17 00:39:20;;;;;;;18.60;4.18;;;10.70;99.90;;;;;;5086725;28;20097;-69
2022/02/17 00:41:46;;;;;;;21.75;3.75;;;10.50;99.90;;;;;;5085318;28;20052;-70
2022/02/17 00:44:13;;;;;;;14.90;3.55;;;10.50;99.90;;;;;;5068939;28;20044;-70
2022/02/17 00:46:39;;;;;;;22.05;4.50;;;10.50;99.90;;;;;;5068464;28;20044;-70
2022/02/17 00:49:05;;;;;;;20.30;3.85;;;10.50;99.90;;;;;;5085043;28;20044;-70
2022/02/17 00:51:31;;;;;;;20.77;3.80;;;10.60;99.90;;;;;;5085012;28;20119;-70
2022/02/17 00:53:56;;;;;;;16.40;3.88;;;10.60;99.90;;;;;;5086638;28;20067;-70
2022/02/17 00:56:22;;;;;;;18.40;4.72;;;10.50;99.90;;;;;;5102319;28;20099;-70
2022/02/17 00:58:48;;;;;;;19.15;3.67;;;10.40;99.90;;;;;;5085973;28;20048;-70
2022/02/17 01:01:14;;;;;;;23.05;3.95;;;10.50;99.90;;;;;;5085126;28;20262;-70
2022/02/17 01:03:39;;;;;;;22.98;5.00;;;10.40;99.90;;;;;;5085527;28;20055;-70
2022/02/17 01:06:05;;;;;;;17.60;4.18;;;10.30;99.90;;;;;;5087432;28;20036;-70
2022/02/17 01:08:31;;;;;;;23.00;5.18;;;10.50;99.90;;;;;;5087484;28;20150;-70
2022/02/17 01:10:57;;;;;;;21.33;5.13;;;10.40;99.90;;;;;;5070131;28;20047;-70
2022/02/17 01:13:23;;;;;;;24.55;4.45;;;10.50;99.90;;;;;;5108444;28;20231;-70
2022/02/17 01:15:49;;;;;;;19.27;4.18;;;10.40;99.90;;;;;;5089106;28;20091;-70
2022/02/17 01:18:15;;;;;;;20.27;4.13;;;10.40;99.90;;;;;;5088698;28;20078;-70
2022/02/17 01:20:41;;;;;;;24.05;4.90;;;10.40;99.90;;;;;;5089070;28;20048;-70
2022/02/17 01:23:10;;;;;;;25.15;5.13;;;10.40;99.90;;;;;;5089147;28;20049;-70
2022/02/17 01:25:36;;;;;;;25.63;5.38;;;10.40;99.90;;;;;;5088912;28;20040;-70
2022/02/17 01:28:01;;;;;;;25.13;4.53;;;10.50;99.90;;;;;;5089233;28;20185;-70
2022/02/17 01:30:27;;;;;;;25.10;5.97;;;10.30;99.90;;;;;;5089006;28;20047;-69
2022/02/17 01:32:53;;;;;;;26.58;5.97;;;10.30;99.90;;;;;;5090097;28;20090;-69
2022/02/17 01:35:19;;;;;;;17.95;4.32;;;10.40;99.90;;;;;;5089870;28;20143;-69
2022/02/17 01:37:46;;;;;;;18.55;4.50;;;10.30;99.90;;;;;;5089385;28;20109;-69
2022/02/17 01:40:13;;;;;;;23.95;4.60;;;10.30;99.90;;;;;;5089351;28;20055;-69
2022/02/17 01:42:39;;;;;;;16.70;4.20;;;10.20;99.90;;;;;;5106945;28;20051;-69
2022/02/17 01:45:07;;;;;;;20.23;3.92;;;10.30;99.90;;;;;;5088030;28;20039;-69
2022/02/17 01:47:33;;;;;;;25.70;4.13;;;10.10;99.90;;;;;;5105218;28;20048;-69
2022/02/17 01:50:00;;;;;;;22.38;3.92;;;10.10;99.90;;;;;;5106655;28;20040;-69
2022/02/17 01:52:26;;;;;;;25.17;4.28;;;10.00;99.90;;;;;;5088716;28;20036;-69
2022/02/17 01:54:52;;;;;;;17.38;3.78;;;10.00;99.90;;;;;;5088953;28;20047;-68
2022/02/17 01:57:25;;;;;;;23.92;4.75;;;10.00;99.90;;;;;;5102721;28;20055;-69
2022/02/17 01:59:51;;;;;;;25.23;5.05;;;9.90;99.90;;;;;;5107906;28;20040;-69
2022/02/17 02:02:17;;;;;;;18.10;4.25;;;10.00;99.90;;;;;;5107821;28;20095;-69
2022/02/17 02:04:43;;;;;;;18.60;4.45;;;10.00;99.90;;;;;;5106522;28;20103;-69
2022/02/17 02:07:10;;;;;;;18.85;4.95;;;9.90;99.90;;;;;;5088908;28;20086;-69
2022/02/17 02:09:36;;;;;;;19.45;4.43;;;9.80;99.90;;;;;;5079484;28;20045;-69
2022/02/17 02:12:03;;;;;;;21.13;5.55;;;9.70;99.90;;;;;;5088791;28;20347;-69
2022/02/17 02:14:29;;;;;;;23.17;4.82;;;9.70;99.90;;;;;;5088453;28;20184;-69
2022/02/17 02:16:56;;;;;;;13.90;4.28;;;9.60;99.90;;;;;;5071862;28;20048;-69
2022/02/17 02:19:23;;;;;;;16.77;4.50;;;9.70;99.90;;;;;;5087889;28;20091;-69
2022/02/17 02:21:49;;;;;;;22.52;6.45;;;9.70;99.90;;;;;;5088345;28;20415;-69
2022/02/17 02:24:15;;;;;;;20.63;4.78;;;9.70;99.90;;;;;;5087580;28;20040;-69
2022/02/17 02:26:40;;;;;;;24.45;4.72;;;9.60;99.90;;;;;;5088360;28;20177;-69
2022/02/17 02:29:06;;;;;;;21.67;4.82;;;9.60;99.90;;;;;;5087468;28;20104;-69
2022/02/17 02:31:32;;;;;;;22.73;5.28;;;9.60;99.90;;;;;;5088113;28;20040;-69
2022/02/17 02:33:58;;;;;;;21.58;4.28;;;9.60;99.90;;;;;;5088289;28;20052;-69
2022/02/17 02:36:25;;;;;;;23.50;6.20;;;9.50;99.90;;;;;;5088044;28;20070;-69
2022/02/17 02:38:52;;;;;;;25.58;6.13;;;9.60;99.90;;;;;;5087433;28;20083;-69
2022/02/17 02:41:18;;;;;;;28.90;6.90;;;9.60;99.90;;;;;;5087140;28;20035;-69
2022/02/17 02:43:44;;;;;;;23.52;4.57;;;9.50;99.90;;;;;;5088062;28;20500;-69
2022/02/17 02:46:10;;;;;;;22.65;5.22;;;9.40;99.90;;;;;;5070993;28;20052;-69
2022/02/17 02:48:36;;;;;;;22.98;3.80;;;9.40;99.90;;;;;;5088762;28;20059;-69
2022/02/17 02:51:02;;;;;;;23.27;4.75;;;9.30;99.90;;;;;;5082322;28;20044;-69
2022/02/17 02:53:29;;;;;;;23.10;3.60;;;9.30;99.90;;;;;;5080027;28;20040;-69
2022/02/17 02:55:54;;;;;;;21.58;5.25;;;9.20;99.90;;;;;;5053369;28;20080;-69
2022/02/17 02:58:20;;;;;;;22.35;5.55;;;9.30;99.90;;;;;;5078702;28;20066;-68
2022/02/17 03:00:49;;;;;;;24.13;5.00;;;9.30;99.90;;;;;;5087373;28;20040;-69
2022/02/17 03:03:15;;;;;;;20.63;4.00;;;9.20;99.90;;;;;;5087457;28;20138;-69
2022/02/17 03:05:41;;;;;;;26.13;5.53;;;9.30;99.90;;;;;;5105338;28;20079;-69
2022/02/17 03:08:07;;;;;;;21.50;4.35;;;9.20;99.90;;;;;;5086728;28;20048;-69
2022/02/17 03:10:33;;;;;;;24.25;5.13;;;9.20;99.90;;;;;;5079746;28;20356;-69
2022/02/17 03:13:00;;;;;;;22.92;5.82;;;9.20;99.90;;;;;;5076908;28;20044;-69
2022/02/17 03:15:26;;;;;;;25.42;6.18;;;9.20;99.90;;;;;;5083493;28;20076;-69
2022/02/17 03:17:53;;;;;;;24.55;5.40;;;9.20;99.90;;;;;;5087661;28;20101;-69
2022/02/17 03:20:20;;;;;;;30.05;5.20;;;9.20;99.90;;;;;;5087682;28;20070;-70
2022/02/17 03:22:46;;;;;;;23.65;5.28;;;9.20;99.90;;;;;;5087377;28;20048;-70
2022/02/17 03:25:13;;;;;;;28.95;5.15;;;9.20;99.90;;;;;;5087345;28;20048;-70
2022/02/17 03:27:39;;;;;;;23.52;4.70;;;9.10;99.90;;;;;;5087946;28;20040;-69
2022/02/17 03:30:07;;;;;;;25.13;5.90;;;9.10;99.90;;;;;;5085975;28;20040;-69
2022/02/17 03:32:34;;;;;;;24.88;6.63;;;9.10;99.90;;;;;;5088087;28;20052;-69
2022/02/17 03:35:00;;;;;;;26.08;4.68;;;9.10;99.90;;;;;;5087997;28;20078;-69
2022/02/17 03:37:26;;;;;;;21.58;4.82;;;9.10;99.90;;;;;;5087948;28;20048;-69
2022/02/17 03:39:52;;;;;;;27.98;5.57;;;9.20;99.90;;;;;;5087541;28;20048;-69
2022/02/17 03:42:18;;;;;;;24.25;6.07;;;9.10;99.90;;;;;;5087692;28;20048;-69
2022/02/17 03:44:43;;;;;;;21.73;5.25;;;9.20;99.90;;;;;;5085822;28;20083;-69
2022/02/17 03:47:09;;;;;;;25.08;6.05;;;9.10;99.90;;;;;;5086392;28;20131;-69
2022/02/17 03:49:35;;;;;;;34.13;6.22;;;9.10;99.90;;;;;;5085488;28;20124;-69
2022/02/17 03:52:01;;;;;;;27.52;4.97;;;9.10;99.90;;;;;;5086403;28;20056;-69
2022/02/17 03:54:27;;;;;;;24.40;5.30;;;9.10;99.90;;;;;;5086858;28;20173;-69
2022/02/17 03:56:53;;;;;;;24.85;5.85;;;9.10;99.90;;;;;;5085844;28;20063;-69
2022/02/17 03:59:18;;;;;;;25.42;4.47;;;9.10;99.90;;;;;;5085543;28;20036;-69
2022/02/17 04:01:44;;;;;;;30.33;5.38;;;9.00;99.90;;;;;;5086055;28;20086;-69
2022/02/17 04:04:11;;;;;;;21.40;4.43;;;9.10;99.90;;;;;;5088001;28;20044;-70
2022/02/17 04:06:37;;;;;;;24.08;4.88;;;9.10;99.90;;;;;;5087630;28;20044;-69
2022/02/17 04:09:05;;;;;;;26.23;5.32;;;9.10;99.90;;;;;;5081351;28;20094;-70
2022/02/17 04:11:30;;;;;;;24.77;5.55;;;9.10;99.90;;;;;;5068517;28;20123;-69
2022/02/17 04:13:56;;;;;;;28.75;6.22;;;9.10;99.90;;;;;;5087271;28;20411;-70
2022/02/17 04:16:22;;;;;;;29.63;6.28;;;9.00;99.90;;;;;;5086288;28;20040;-69
2022/02/17 04:18:49;;;;;;;20.33;4.22;;;9.00;99.90;;;;;;5085930;28;20048;-70
2022/02/17 04:21:16;;;;;;;19.52;5.20;;;9.00;99.90;;;;;;5086441;28;20157;-70
2022/02/17 04:23:44;;;;;;;30.02;4.70;;;9.00;99.90;;;;;;5085644;28;20099;-70
2022/02/17 04:26:16;;;;;;;19.17;5.00;;;8.90;99.90;;;;;;5069487;28;20044;-70
2022/02/17 04:28:43;;;;;;;24.38;5.68;;;8.90;99.90;;;;;;5085912;28;20040;-70
2022/02/17 04:31:10;;;;;;;22.05;5.18;;;9.00;99.90;;;;;;5086795;28;20554;-69
2022/02/17 04:33:39;;;;;;;28.35;5.25;;;8.90;99.90;;;;;;5087028;28;20108;-70
2022/02/17 04:36:06;;;;;;;19.27;4.88;;;9.00;99.90;;;;;;5104752;28;20040;-70
2022/02/17 04:38:31;;;;;;;24.77;6.95;;;8.90;99.90;;;;;;5104112;28;20043;-70
2022/02/17 04:43:43;;;;;;;21.33;4.65;;;8.80;99.90;;;;;;5086408;28;20052;-71
2022/02/17 04:46:09;;;;;;;19.63;4.20;;;8.70;99.90;;;;;;5104242;28;20086;-71
2022/02/17 04:48:35;;;;;;;23.50;5.13;;;8.70;99.90;;;;;;5085519;28;20100;-71
2022/02/17 04:51:01;;;;;;;22.20;4.85;;;8.80;99.90;;;;;;5086005;28;20263;-71
2022/02/17 04:53:27;;;;;;;24.15;4.82;;;8.70;99.90;;;;;;5085192;28;20131;-71
2022/02/17 04:55:53;;;;;;;19.73;4.43;;;8.80;99.90;;;;;;5069286;28;20196;-71
2022/02/17 04:58:18;;;;;;;25.85;4.75;;;8.50;99.90;;;;;;5084784;28;20099;-71
2022/02/17 05:00:45;;;;;;;21.17;4.65;;;8.60;99.90;;;;;;5084915;28;20040;-71
2022/02/17 05:03:11;;;;;;;22.40;4.53;;;8.60;99.90;;;;;;5085390;28;20052;-71
2022/02/17 05:05:37;;;;;;;26.40;5.15;;;8.60;99.90;;;;;;5087063;28;20157;-71
2022/02/17 05:08:04;;;;;;;18.75;4.15;;;8.60;99.90;;;;;;5085613;28;20515;-71
2022/02/17 05:10:30;;;;;;;30.40;5.88;;;8.60;99.90;;;;;;5077240;28;20488;-71
2022/02/17 05:12:56;;;;;;;16.90;4.03;;;8.50;99.90;;;;;;5085930;28;20036;-71
2022/02/17 05:15:21;;;;;;;21.70;5.20;;;8.60;99.90;;;;;;5070268;28;20615;-71
2022/02/17 05:17:47;;;;;;;25.65;4.32;;;8.60;99.90;;;;;;5085557;28;20136;-71
2022/02/17 05:20:14;;;;;;;28.17;4.38;;;8.50;99.90;;;;;;5068723;28;20055;-71
2022/02/17 05:22:41;;;;;;;19.55;4.53;;;8.60;99.90;;;;;;5084975;28;20143;-71
2022/02/17 05:25:09;;;;;;;22.75;3.85;;;8.60;99.90;;;;;;5084623;28;20055;-71
2022/02/17 05:27:35;;;;;;;18.42;4.13;;;8.50;99.90;;;;;;5084522;28;20426;-71
2022/02/17 05:30:01;;;;;;;19.40;4.30;;;8.50;99.90;;;;;;5085005;28;20104;-71
2022/02/17 05:32:26;;;;;;;20.63;4.47;;;8.50;99.90;;;;;;5085302;28;20067;-71
2022/02/17 05:34:52;;;;;;;20.60;5.03;;;8.60;99.90;;;;;;5085163;28;20112;-71
2022/02/17 05:37:18;;;;;;;27.02;4.38;;;8.50;99.90;;;;;;5084473;28;20075;-72
2022/02/17 05:39:43;;;;;;;22.65;4.28;;;8.40;99.90;;;;;;5056634;28;20059;-69
2022/02/17 05:42:09;;;;;;;22.23;5.00;;;8.40;99.90;;;;;;5085078;28;20058;-69
2022/02/17 05:44:35;;;;;;;21.83;4.15;;;8.50;99.90;;;;;;5074502;28;20068;-70
2022/02/17 05:47:01;;;;;;;16.75;3.83;;;8.50;99.90;;;;;;5048396;28;20040;-69
2022/02/17 05:49:26;;;;;;;30.70;5.53;;;8.50;99.90;;;;;;5048534;28;20480;-73
2022/02/17 05:51:52;;;;;;;21.25;4.18;;;8.40;99.90;;;;;;5068385;28;20082;-68
2022/02/17 05:54:18;;;;;;;17.33;3.72;;;8.40;99.90;;;;;;5079372;28;20084;-67
2022/02/17 05:56:43;;;;;;;19.58;4.07;;;8.50;99.90;;;;;;5076954;28;20281;-68
2022/02/17 05:59:09;;;;;;;19.20;4.63;;;8.40;99.90;;;;;;5079252;28;20468;-67
2022/02/17 06:01:35;;;;;;;25.20;4.80;;;8.40;99.90;;;;;;5078685;28;20072;-68
2022/02/17 06:04:00;;;;;;;28.05;6.20;;;8.40;99.90;;;;;;5082153;28;20052;-67
2022/02/17 06:06:26;;;;;;;20.70;4.40;;;8.40;99.90;;;;;;5064059;28;20043;-70
2022/02/17 06:08:52;;;;;;;20.88;4.53;;;8.40;99.90;;;;;;5066772;28;20064;-70
2022/02/17 06:11:17;;;;;;;21.55;3.33;;;8.30;99.90;;;;;;5060253;28;20476;-70
2022/02/17 06:13:43;;;;;;;22.00;3.97;;;8.40;99.90;;;;;;5070715;28;20586;-69
2022/02/17 06:16:09;;;;;;;18.27;4.03;;;8.50;99.90;;;;;;5064727;28;20074;-69
2022/02/17 06:18:34;;;;;;;29.17;5.05;;;8.40;99.90;;;;;;5054468;28;20080;-69
2022/02/17 06:21:00;;;;;;;23.77;5.05;;;8.40;99.90;;;;;;5046594;28;20033;-69
2022/02/17 06:23:26;;;;;;;23.63;4.93;;;8.40;99.90;;;;;;5068771;28;20207;-70
2022/02/17 06:25:53;;;;;;;26.02;5.47;;;8.40;99.90;;;;;;5065968;28;20092;-69
2022/02/17 06:28:19;;;;;;;20.25;3.70;;;8.40;99.90;;;;;;5051237;28;20056;-69
2022/02/17 06:30:45;;;;;;;20.05;4.30;;;8.30;99.90;;;;;;5109653;28;20218;-70
2022/02/17 06:33:11;;;;;;;17.10;4.32;;;8.40;99.90;;;;;;5070306;28;20688;-67
2022/02/17 06:35:38;;;;;;;20.58;4.07;;;8.40;99.90;;;;;;5079464;28;20032;-67
2022/02/17 06:38:06;;;;;;;20.60;4.28;;;8.40;99.90;;;;;;5068461;28;20056;-67
2022/02/17 06:40:32;;;;;;;21.38;3.47;;;8.40;99.90;;;;;;5050769;28;20043;-67
2022/02/17 06:43:10;;;;;;;16.27;4.03;;;8.30;99.90;;;;;;5066442;28;20048;-67
2022/02/17 06:45:37;;;;;;;21.23;4.03;;;8.30;99.90;;;;;;5079734;28;20064;-68
2022/02/17 06:48:05;;;;;;;24.15;4.50;;;8.30;99.90;;;;;;5052612;28;20058;-67
2022/02/17 06:50:32;;;;;;;19.05;3.90;;;8.30;99.90;;;;;;5076179;28;20040;-67
2022/02/17 06:52:57;;;;;;;22.02;4.45;;;8.30;99.90;;;;;;5065972;28;20040;-67
2022/02/17 06:55:23;;;;;;;21.17;4.45;;;8.20;99.90;;;;;;5074396;28;20075;-66
2022/02/17 06:57:49;;;;;;;20.50;3.72;;;8.20;99.90;;;;;;5068316;28;20040;-67
2022/02/17 07:00:15;;;;;;;20.65;4.20;;;8.20;99.90;;;;;;5060225;28;20143;-66
2022/02/17 07:02:52;;;;;;;20.38;4.72;;;8.20;99.90;;;;;;5078702;28;20052;-67
2022/02/17 07:05:19;;;;;;;27.55;5.03;;;8.20;99.90;;;;;;5096469;28;20047;-67
2022/02/17 07:07:45;;;;;;;20.50;3.45;;;8.10;99.90;;;;;;5068791;28;20075;-67
2022/02/17 07:10:11;;;;;;;23.88;3.92;;;8.10;99.90;;;;;;5075759;28;20314;-67
2022/02/17 07:12:37;;;;;;;25.20;5.00;;;8.00;99.90;;;;;;5067833;28;20045;-67
2022/02/17 07:15:03;;;;;;;17.67;4.25;;;8.10;99.90;;;;;;5079455;28;20048;-67
2022/02/17 07:17:29;;;;;;;26.63;4.40;;;8.20;99.90;;;;;;5069415;28;20036;-68
2022/02/17 07:19:55;;;;;;;21.55;4.20;;;8.10;99.90;;;;;;5077337;28;20047;-67
2022/02/17 07:22:21;;;;;;;24.70;4.05;;;8.10;99.90;;;;;;5068285;28;20287;-67
2022/02/17 07:24:46;;;;;;;16.98;3.95;;;8.10;99.90;;;;;;5080961;28;20036;-67
2022/02/17 07:27:12;;;;;;;23.27;4.93;;;8.10;99.90;;;;;;5079494;28;20101;-67
2022/02/17 07:29:38;;;;;;;25.40;5.75;;;8.00;99.90;;;;;;5070132;28;20059;-67
2022/02/17 07:32:06;;;;;;;20.33;3.38;;;8.00;99.90;;;;;;5077299;28;20056;-71
2022/02/17 07:34:32;;;;;;;27.08;4.70;;;8.10;99.90;;;;;;5068988;28;20142;-70
2022/02/17 07:36:57;;;;;;;29.23;5.63;;;8.10;99.90;;;;;;5077768;28;20098;-70
2022/02/17 07:39:23;;;;;;;24.92;4.20;;;8.10;99.90;;;;;;5041409;28;20082;-71
2022/02/17 07:41:49;;;;;;;26.88;4.43;;;8.00;99.90;;;;;;5069166;28;20170;-67
2022/02/17 07:44:14;;;;;;;27.27;4.63;;;8.00;99.90;;;;;;5067996;28;20104;-70
2022/02/17 07:46:40;;;;;;;22.48;3.83;;;8.10;99.90;;;;;;5063039;28;20116;-71
2022/02/17 07:49:06;;;;;;;24.77;5.38;;;8.10;99.90;;;;;;5069776;28;20648;-71
2022/02/17 07:51:33;;;;;;;18.83;3.83;;;8.00;99.90;;;;;;5072595;28;20036;-71
2022/02/17 07:53:59;;;;;;;24.05;4.60;;;8.00;99.90;;;;;;5065956;28;20048;-71
2022/02/17 07:56:25;;;;;;;23.23;4.05;;;7.90;99.90;;;;;;5068526;28;20054;-72
2022/02/17 07:58:51;;;;;;;18.10;4.80;;;7.90;99.90;;;;;;5069820;28;20055;-71
2022/02/17 08:01:18;;;;;;;20.70;4.85;;;7.90;99.90;;;;;;5062326;28;20046;-71
2022/02/17 08:03:44;;;;;;;26.67;6.07;;;7.80;99.90;;;;;;5067494;28;20059;-71
2022/02/17 08:06:11;;;;;;;25.73;6.20;;;8.00;99.90;;;;;;5095099;28;20094;-71
2022/02/17 08:08:37;;;;;;;25.40;4.72;;;7.90;99.90;;;;;;5051825;28;20051;-71
2022/02/17 08:11:05;;;;;;;28.15;4.80;;;7.90;99.90;;;;;;5070515;28;20041;-71
2022/02/17 08:13:31;;;;;;;26.00;4.43;;;7.80;99.90;;;;;;5048112;28;20048;-71
2022/02/17 08:15:57;;;;;;;17.05;4.82;;;7.80;99.90;;;;;;5066644;28;20169;-71
2022/02/17 08:18:23;;;;;;;22.63;4.13;;;7.80;99.90;;;;;;5067101;28;20087;-71
2022/02/17 08:20:49;;;;;;;23.13;4.43;;;7.80;99.90;;;;;;5078339;28;20052;-71
2022/02/17 08:23:15;;;;;;;19.30;3.25;;;7.80;99.90;;;;;;5052511;28;20142;-70
2022/02/17 08:25:42;;;;;;;24.85;4.05;;;7.80;99.90;;;;;;5079349;28;20075;-71
2022/02/17 08:28:08;;;;;;;20.52;4.78;;;7.80;99.90;;;;;;5066977;28;20055;-71
2022/02/17 08:30:37;;;;;;;16.27;4.20;;;7.80;99.90;;;;;;5079595;28;20040;-71
2022/02/17 08:33:03;;;;;;;22.13;4.63;;;7.90;99.90;;;;;;5063439;28;20055;-72
2022/02/17 08:35:29;;;;;;;22.48;3.30;;;7.80;99.90;;;;;;5065777;28;20048;-72
2022/02/17 08:38:00;;;;;;;24.92;4.50;;;7.90;99.90;;;;;;5068217;28;20069;-72
2022/02/17 08:40:28;;;;;;;22.27;4.72;;;7.80;99.90;;;;;;5056067;28;20075;-71
2022/02/17 08:42:54;;;;;;;16.45;3.50;;;7.80;99.90;;;;;;5047193;28;20166;-71
2022/02/17 08:45:20;;;;;;;17.08;3.03;;;7.80;99.90;;;;;;5057487;28;20056;-71
2022/02/17 08:47:46;;;;;;;21.08;3.88;;;7.80;99.90;;;;;;5068343;28;20036;-72
2022/02/17 08:50:11;;;;;;;21.20;4.60;;;7.80;99.90;;;;;;5089245;28;20090;-71
2022/02/17 08:52:38;;;;;;;23.13;5.82;;;7.80;99.90;;;;;;5050592;28;20131;-71
2022/02/17 08:55:06;;;;;;;25.05;3.88;;;7.90;99.90;;;;;;5073597;28;20052;-71
2022/02/17 08:57:32;;;;;;;23.85;4.35;;;7.90;99.90;;;;;;5087742;28;20537;-71
2022/02/17 08:59:57;;;;;;;26.00;3.78;;;7.80;99.90;;;;;;5050142;28;20119;-71
2022/02/17 09:02:23;;;;;;;25.55;4.95;;;7.80;99.90;;;;;;5061581;28;20106;-71
2022/02/17 09:04:49;;;;;;;19.10;4.38;;;7.90;99.90;;;;;;5067922;28;20579;-70
2022/02/17 09:07:15;;;;;;;21.10;3.47;;;7.90;99.90;;;;;;5077723;28;20044;-70
2022/02/17 09:09:41;;;;;;;20.63;4.15;;;7.80;99.90;;;;;;5055659;28;20088;-71
2022/02/17 09:12:08;;;;;;;23.15;4.78;;;7.90;99.90;;;;;;5084978;28;20047;-71
2022/02/17 09:14:34;;;;;;;23.90;3.03;;;7.80;99.90;;;;;;5046835;28;20048;-71
2022/02/17 09:16:59;;;;;;;26.15;4.72;;;7.90;99.90;;;;;;5053473;28;20281;-71
2022/02/17 09:19:25;;;;;;;22.20;4.00;;;7.90;99.90;;;;;;5065291;28;20052;-71
2022/02/17 09:21:51;;;;;;;21.05;4.32;;;7.90;99.90;;;;;;5081304;28;20044;-71
2022/02/17 09:24:17;;;;;;;22.60;3.60;;;7.90;99.90;;;;;;5051746;28;20056;-71
2022/02/17 09:26:45;;;;;;;22.40;4.13;;;7.90;99.90;;;;;;5094598;28;20611;-72
2022/02/17 09:29:11;;;;;;;22.10;3.80;;;7.90;99.90;;;;;;5080524;28;20140;-71
2022/02/17 09:31:37;;;;;;;21.70;4.07;;;7.90;99.90;;;;;;5081172;28;20048;-71
2022/02/17 09:34:03;;;;;;;20.67;4.93;;;7.90;99.90;;;;;;5050866;28;20068;-71
2022/02/17 09:36:29;;;;;;;25.02;5.10;;;7.90;99.90;;;;;;5076735;28;20048;-71
2022/02/17 09:38:56;;;;;;;16.10;3.35;;;7.90;99.90;;;;;;5062809;28;20052;-73
2022/02/17 09:41:22;;;;;;;15.50;4.22;;;7.90;99.90;;;;;;5071787;28;20554;-71
2022/02/17 09:43:50;;;;;;;19.30;4.13;;;8.00;99.90;;;;;;5074318;28;20068;-72
2022/02/17 09:46:21;;;;;;;22.33;4.05;;;8.00;99.90;;;;;;5085968;28;20049;-71
2022/02/17 09:49:01;;;;;;;23.88;4.07;;;8.00;99.90;;;;;;5036411;28;20091;-71
2022/02/17 09:51:32;;;;;;;22.13;4.78;;;8.00;99.90;;;;;;5061380;28;20045;-71
2022/02/17 09:53:59;;;;;;;24.17;4.15;;;8.00;99.90;;;;;;5049498;28;21006;-71
2022/02/17 09:56:25;;;;;;;18.92;4.03;;;8.00;99.90;;;;;;5043842;28;20131;-72
2022/02/17 09:58:55;;;;;;;23.83;5.15;;;8.10;99.90;;;;;;5030897;28;20057;-71
2022/02/17 10:01:26;;;;;;;17.10;4.20;;;8.10;99.90;;;;;;5055296;28;20045;-71
2022/02/17 10:04:16;;;;;;;15.85;3.60;;;8.20;99.90;;;;;;5037654;28;20064;-71
2022/02/17 10:06:48;;;;;;;18.77;4.93;;;8.20;99.90;;;;;;5044626;28;20060;-71
2022/02/17 10:09:15;;;;;;;19.90;3.47;;;8.20;99.90;;;;;;5048827;28;20127;-72
2022/02/17 10:11:42;;;;;;;16.30;3.92;;;8.30;99.90;;;;;;5060120;28;20047;-71
2022/02/17 10:14:10;;;;;;;17.90;3.40;;;8.20;99.90;;;;;;5033116;28;20060;-71
2022/02/17 10:17:06;;;;;;;20.75;3.65;;;8.30;99.90;;;;;;5031031;28;20047;-71
2022/02/17 10:19:41;;;;;;;17.48;3.28;;;8.20;99.90;;;;;;5041968;28;20151;-71
2022/02/17 10:22:08;;;;;;;16.80;4.07;;;8.20;99.90;;;;;;5055390;28;20063;-71
2022/02/17 10:24:48;;;;;;;23.20;3.60;;;8.30;99.90;;;;;;5047473;28;20045;-71
2022/02/17 10:27:16;;;;;;;22.83;4.70;;;8.20;99.90;;;;;;5053834;28;20052;-71
2022/02/17 10:30:13;;;;;;;18.85;3.65;;;8.20;99.90;;;;;;5030301;28;20048;-71
2022/02/17 10:32:56;;;;;;;22.52;3.28;;;8.20;99.90;;;;;;5058476;28;20044;-71
2022/02/17 10:35:23;;;;;;;17.50;3.17;;;8.20;99.90;;;;;;5049684;28;20770;-71
2022/02/17 10:37:52;;;;;;;17.50;4.68;;;8.30;99.90;;;;;;5058574;28;20056;-72
2022/02/17 10:40:27;;;;;;;16.85;4.07;;;8.30;99.90;;;;;;5009701;28;20088;-71
2022/02/17 10:43:10;;;;;;;19.70;3.42;;;8.30;99.90;;;;;;5033684;28;20059;-72
2022/02/17 10:45:41;;;;;;;20.58;3.47;;;8.40;99.90;;;;;;5040993;28;20053;-71
2022/02/17 10:48:24;;;;;;;17.50;2.97;;;8.40;99.90;;;;;;5062878;28;20102;-72
2022/02/17 10:51:13;;;;;;;17.75;4.45;;;8.50;99.90;;;;;;5079500;28;20060;-71
2022/02/17 10:53:42;;;;;;;24.58;3.65;;;8.60;99.90;;;;;;5068952;28;20060;-71
2022/02/17 10:56:16;;;;;;;20.02;4.47;;;8.70;99.90;;;;;;5072960;28;20043;-72
2022/02/17 10:58:48;;;;;;;19.85;4.47;;;8.80;99.90;;;;;;5051285;28;20049;-72
2022/02/17 11:01:16;;;;;;;12.55;3.78;;;8.70;99.90;;;;;;5055129;28;20040;-71
2022/02/17 11:03:42;;;;;;;18.50;3.47;;;8.70;99.90;;;;;;5058836;28;20053;-71
2022/02/17 11:06:10;;;;;;;19.38;3.58;;;8.80;99.90;;;;;;5059508;28;20482;-71
2022/02/17 11:08:36;;;;;;;17.23;3.63;;;8.80;99.90;;;;;;5046002;28;20539;-71
2022/02/17 11:11:04;;;;;;;16.27;3.67;;;9.10;99.90;;;;;;5047224;28;20611;-69
2022/02/17 11:13:31;;;;;;;16.50;3.65;;;9.10;99.90;;;;;;5078160;28;20049;-72
2022/02/17 11:16:03;;;;;;;20.98;3.50;;;9.30;99.90;;;;;;5079011;28;20107;-72
2022/02/17 11:18:29;;;;;;;14.10;3.55;;;9.30;99.90;;;;;;5065374;28;20056;-71
2022/02/17 11:20:57;;;;;;;15.05;3.22;;;9.10;99.90;;;;;;5081176;28;20075;-72
2022/02/17 11:23:31;;;;;;;18.90;3.75;;;8.90;99.90;;;;;;5070294;28;20052;-72
2022/02/17 11:25:57;;;;;;;17.70;3.20;;;9.10;99.90;;;;;;5080934;28;20047;-72
2022/02/17 11:28:34;;;;;;;19.40;3.85;;;9.10;99.90;;;;;;5069070;28;20037;-71
2022/02/17 11:31:10;;;;;;;14.80;2.88;;;9.00;99.90;;;;;;5078559;28;20048;-70
2022/02/17 11:33:41;;;;;;;15.88;3.00;;;9.10;99.90;;;;;;5068497;28;20102;-71
2022/02/17 11:36:22;;;;;;;15.43;3.10;;;9.10;99.90;;;;;;5080840;28;20047;-70
2022/02/17 11:38:50;;;;;;;;;;;9.00;99.90;;;;;;5031861;28;20048;-70
2022/02/17 11:41:21;;;;;;;13.52;2.58;;;9.10;99.90;;;;;;5057454;28;20350;-70
2022/02/17 11:43:51;;;;;;;13.25;2.42;;;9.30;99.90;;;;;;5068430;28;20061;-70
2022/02/17 11:46:41;;;;;;;13.32;3.40;;;9.40;99.90;;;;;;5073673;28;20616;-70
2022/02/17 11:49:32;;;;;;;15.15;3.10;;;9.40;99.90;;;;;;5050354;28;20052;-71
2022/02/17 11:52:13;;;;;;;17.45;3.20;;;9.30;99.90;;;;;;5077112;28;20060;-71
2022/02/17 11:54:40;;;;;;;17.15;3.75;;;9.20;99.90;;;;;;5061522;28;20113;-71
2022/02/17 11:57:35;;;;;;;13.18;2.95;;;9.30;99.90;;;;;;5074462;28;20070;-71
2022/02/17 12:00:16;;;;;;;14.55;2.67;;;9.20;99.90;;;;;;5068284;28;20051;-71
2022/02/17 12:02:43;;;;;;;13.15;3.10;;;9.10;99.90;;;;;;5071170;28;20575;-72
2022/02/17 12:05:13;;;;;;;14.43;3.78;;;9.20;99.90;;;;;;5041225;28;20048;-72
2022/02/17 12:07:41;;;;;;;19.17;3.72;;;9.00;99.90;;;;;;5068731;28;20036;-72
2022/02/17 12:10:32;;;;;;;13.30;3.17;;;9.00;99.90;;;;;;5055061;28;20232;-72
2022/02/17 12:12:59;;;;;;;13.63;3.15;;;9.10;99.90;;;;;;5097068;28;20388;-72
2022/02/17 12:15:25;;;;;;;11.57;2.65;;;9.30;99.90;;;;;;5066159;28;20048;-72
2022/02/17 12:17:54;;;;;;;17.00;3.33;;;9.20;99.90;;;;;;5079018;28;20032;-72
2022/02/17 12:20:21;;;;;;;11.93;2.85;;;9.20;99.90;;;;;;5070453;28;20066;-72
2022/02/17 12:22:55;;;;;;;16.08;2.45;;;9.30;99.90;;;;;;5080299;28;20071;-72
2022/02/17 12:25:29;;;;;;;11.27;2.63;;;9.30;99.90;;;;;;5053322;28;20142;-71
2022/02/17 12:27:58;;;;;;;19.50;3.35;;;9.20;99.90;;;;;;5080506;28;20079;-71
2022/02/17 12:30:48;;;;;;;16.77;3.20;;;9.30;99.90;;;;;;5070175;28;20063;-72
2022/02/17 12:33:17;;;;;;;16.40;2.70;;;9.30;99.90;;;;;;5078540;28;20076;-71
2022/02/17 12:35:57;;;;;;;12.65;3.25;;;9.30;99.90;;;;;;5068003;28;20056;-71
2022/02/17 12:38:24;;;;;;;17.08;3.53;;;9.50;99.90;;;;;;5085416;28;20069;-73
2022/02/17 12:40:50;;;;;;;20.05;4.03;;;9.50;99.90;;;;;;5049829;28;20051;-72
2022/02/17 12:43:32;;;;;;;16.85;3.00;;;9.60;99.90;;;;;;5095415;28;20036;-72
2022/02/17 12:45:59;;;;;;;15.48;3.50;;;9.70;99.90;;;;;;5065116;28;20043;-73
2022/02/17 12:48:30;;;;;;;13.77;3.28;;;9.60;99.90;;;;;;5068992;28;20062;-73
2022/02/17 12:50:56;;;;;;;15.43;3.33;;;9.50;99.90;;;;;;5077735;28;20040;-73